createdAt,value
2023-02-05T00:00:23.226Z,102556.31
2023-02-05T00:02:51.178Z,102558.94
2023-02-05T00:05:18.916Z,102558.91
2023-02-05T00:07:46.873Z,102556.22
2023-02-05T00:10:14.728Z,102558.84
2023-02-05T00:12:42.606Z,102551.75
2023-02-05T00:15:11.031Z,102558.78
2023-02-05T00:17:38.903Z,102547.28
2023-02-05T00:20:07.213Z,102549.09
2023-02-05T00:22:34.941Z,102548.16
2023-02-05T00:25:02.687Z,102552.63
2023-02-05T00:27:30.764Z,102560.53
2023-02-05T00:29:58.599Z,102564.88
2023-02-05T00:32:26.468Z,102555.94
2023-02-05T00:34:54.285Z,102562.94
2023-02-05T00:37:22.340Z,102567.31
2023-02-05T00:39:50.137Z,102562.81
2023-02-05T00:42:17.865Z,102546.84
2023-02-05T00:44:45.556Z,102547.78
2023-02-05T00:47:13.483Z,102532.75
2023-02-05T00:49:41.366Z,102545.25
2023-02-05T00:52:09.275Z,102539.06
2023-02-05T00:54:37.200Z,102548.78
2023-02-05T00:57:05.738Z,102546.94
2023-02-05T00:59:33.893Z,102551.34
2023-02-05T01:02:01.698Z,102550.44
2023-02-05T01:04:29.536Z,102529.13
2023-02-05T01:06:57.352Z,102537.88
2023-02-05T01:09:25.289Z,102542.28
2023-02-05T01:11:53.278Z,102548.41
2023-02-05T01:14:21.261Z,102543.06
2023-02-05T01:16:48.968Z,102541.31
2023-02-05T01:19:16.673Z,102536.00
2023-02-05T01:21:44.512Z,102529.81
2023-02-05T01:24:12.301Z,102527.16
2023-02-05T01:26:40.392Z,102531.63
2023-02-05T01:29:09.194Z,102527.31
2023-02-05T01:31:37.073Z,102520.28
2023-02-05T01:34:04.964Z,102515.91
2023-02-05T01:36:32.741Z,102511.44
2023-02-05T01:39:00.524Z,102509.69
2023-02-05T01:41:28.456Z,102495.53
2023-02-05T01:44:14.041Z,102507.06
2023-02-05T01:46:47.298Z,102505.22
2023-02-05T01:49:40.750Z,102501.72
2023-02-05T01:52:16.859Z,102495.53
2023-02-05T01:54:49.081Z,102489.31
2023-02-05T01:57:23.838Z,102490.19
2023-02-05T01:59:52.123Z,102478.66
2023-02-05T02:02:20.381Z,102483.06
2023-02-05T02:04:55.167Z,102491.03
2023-02-05T02:07:24.651Z,102486.53
2023-02-05T02:09:54.778Z,102494.47
2023-02-05T02:12:32.577Z,102497.16
2023-02-05T02:15:08.416Z,102484.75
2023-02-05T02:17:40.960Z,102475.91
2023-02-05T02:20:14.713Z,102477.69
2023-02-05T02:23:16.347Z,102480.34
2023-02-05T02:25:43.997Z,102473.25
2023-02-05T02:28:20.245Z,102458.28
2023-02-05T02:31:33.306Z,102451.19
2023-02-05T02:34:11.790Z,102451.19
2023-02-05T02:37:07.685Z,102448.41
2023-02-05T02:39:55.527Z,102449.19
2023-02-05T02:42:35.271Z,102449.19
2023-02-05T02:45:08.297Z,102443.06
2023-02-05T02:47:48.899Z,102454.59
2023-02-05T02:50:44.661Z,102447.53
2023-02-05T02:53:42.992Z,102437.81
2023-02-05T02:56:17.525Z,102451.19
2023-02-05T02:58:48.609Z,102456.53
2023-02-05T03:01:24.337Z,102459.22
2023-02-05T03:03:58.843Z,102448.56
2023-02-05T03:06:30.703Z,102454.72
2023-02-05T03:09:07.413Z,102450.34
2023-02-05T03:11:35.495Z,102443.22
2023-02-05T03:14:03.647Z,102423.78
2023-02-05T03:16:35.860Z,102440.66
2023-02-05T03:19:06.260Z,102438.00
2023-02-05T03:21:43.539Z,102424.78
2023-02-05T03:24:12.502Z,102420.34
2023-02-05T03:26:40.800Z,102428.31
2023-02-05T03:29:21.366Z,102431.91
2023-02-05T03:32:13.432Z,102424.88
2023-02-05T03:35:04.428Z,102423.06
2023-02-05T03:38:17.814Z,102411.59
2023-02-05T03:41:05.835Z,102424.03
2023-02-05T03:43:51.083Z,102424.91
2023-02-05T03:47:02.213Z,102420.44
2023-02-05T03:50:19.076Z,102414.25
2023-02-05T03:53:12.902Z,102413.34
2023-02-05T03:55:48.723Z,102410.69
2023-02-05T03:58:43.542Z,102412.47
2023-02-05T04:01:13.131Z,102415.09
2023-02-05T04:03:42.913Z,102410.50
2023-02-05T04:06:13.083Z,102408.84
2023-02-05T04:08:43.965Z,102408.00
2023-02-05T04:11:12.607Z,102408.91
2023-02-05T04:13:41.043Z,102411.59
2023-02-05T04:16:11.649Z,102404.53
2023-02-05T04:18:39.814Z,102401.00
2023-02-05T04:21:08.008Z,102405.41
2023-02-05T04:23:39.371Z,102407.19
2023-02-05T04:26:08.499Z,102418.69
2023-02-05T04:28:43.039Z,102416.91
2023-02-05T04:31:12.409Z,102409.84
2023-02-05T04:33:41.980Z,102408.06
2023-02-05T04:36:12.188Z,102420.47
2023-02-05T04:38:40.480Z,102407.22
2023-02-05T04:41:08.797Z,102400.09
2023-02-05T04:43:36.709Z,102402.72
2023-02-05T04:46:10.123Z,102417.78
2023-02-05T04:48:38.892Z,102432.84
2023-02-05T04:51:12.036Z,102437.28
2023-02-05T04:53:40.685Z,102443.50
2023-02-05T04:56:11.863Z,102434.69
2023-02-05T04:58:40.520Z,102437.31
2023-02-05T05:01:19.674Z,102439.97
2023-02-05T05:03:48.305Z,102425.75
2023-02-05T05:06:18.015Z,102432.81
2023-02-05T05:08:46.162Z,102425.75
2023-02-05T05:11:17.443Z,102432.81
2023-02-05T05:13:46.176Z,102428.44
2023-02-05T05:16:14.439Z,102418.72
2023-02-05T05:18:42.280Z,102419.59
2023-02-05T05:21:10.694Z,102426.66
2023-02-05T05:23:38.972Z,102425.81
2023-02-05T05:26:09.724Z,102417.84
2023-02-05T05:28:37.885Z,102407.22
2023-02-05T05:31:11.373Z,102399.28
2023-02-05T05:33:39.281Z,102386.00
2023-02-05T05:36:07.829Z,102388.69
2023-02-05T05:38:35.939Z,102403.75
2023-02-05T05:41:23.992Z,102385.13
2023-02-05T05:43:54.309Z,102402.88
2023-02-05T05:46:25.859Z,102402.88
2023-02-05T05:48:55.684Z,102386.84
2023-02-05T05:51:25.551Z,102383.34
2023-02-05T05:53:54.117Z,102398.41
2023-02-05T05:56:22.401Z,102403.78
2023-02-05T05:58:50.407Z,102408.19
2023-02-05T06:01:21.969Z,102411.75
2023-02-05T06:03:50.059Z,102406.31
2023-02-05T06:06:18.008Z,102397.56
2023-02-05T06:08:45.693Z,102387.88
2023-02-05T06:11:13.579Z,102398.47
2023-02-05T06:13:41.813Z,102405.56
2023-02-05T06:16:09.769Z,102401.16
2023-02-05T06:18:37.600Z,102415.34
2023-02-05T06:21:05.916Z,102407.38
2023-02-05T06:23:34.528Z,102405.59
2023-02-05T06:26:02.624Z,102404.72
2023-02-05T06:28:30.432Z,102395.84
2023-02-05T06:30:58.283Z,102400.31
2023-02-05T06:33:26.124Z,102404.72
2023-02-05T06:35:53.846Z,102412.69
2023-02-05T06:38:21.554Z,102405.59
2023-02-05T06:40:49.513Z,102418.88
2023-02-05T06:43:17.454Z,102411.81
2023-02-05T06:45:45.223Z,102414.44
2023-02-05T06:48:13.113Z,102417.13
2023-02-05T06:50:41.017Z,102420.66
2023-02-05T06:53:10.534Z,102418.00
2023-02-05T06:55:39.896Z,102433.03
2023-02-05T06:58:07.898Z,102428.63
2023-02-05T07:00:36.348Z,102415.38
2023-02-05T07:03:04.403Z,102418.03
2023-02-05T07:05:34.677Z,102400.28
2023-02-05T07:08:04.155Z,102409.16
2023-02-05T07:10:32.016Z,102411.81
2023-02-05T07:12:59.714Z,102395.84
2023-02-05T07:15:27.411Z,102410.91
2023-02-05T07:17:55.438Z,102411.84
2023-02-05T07:20:23.539Z,102414.50
2023-02-05T07:22:51.941Z,102416.31
2023-02-05T07:25:19.836Z,102420.75
2023-02-05T07:27:47.585Z,102406.53
2023-02-05T07:30:15.849Z,102411.03
2023-02-05T07:32:43.607Z,102417.22
2023-02-05T07:35:11.474Z,102411.91
2023-02-05T07:37:39.515Z,102410.16
2023-02-05T07:40:08.876Z,102415.47
2023-02-05T07:42:36.625Z,102405.75
2023-02-05T07:45:05.587Z,102405.72
2023-02-05T07:47:33.465Z,102409.28
2023-02-05T07:50:02.420Z,102405.75
2023-02-05T07:52:30.223Z,102407.50
2023-02-05T07:54:57.960Z,102414.63
2023-02-05T07:57:26.706Z,102404.84
2023-02-05T07:59:54.654Z,102393.34
2023-02-05T08:02:22.446Z,102389.84
2023-02-05T08:04:50.251Z,102380.09
2023-02-05T08:07:18.072Z,102385.38
2023-02-05T08:09:45.998Z,102385.38
2023-02-05T08:12:13.881Z,102375.66
2023-02-05T08:14:41.601Z,102376.53
2023-02-05T08:17:09.413Z,102364.16
2023-02-05T08:19:37.544Z,102362.38
2023-02-05T08:22:05.471Z,102365.94
2023-02-05T08:24:33.313Z,102346.44
2023-02-05T08:27:01.763Z,102351.78
2023-02-05T08:29:29.752Z,102353.53
2023-02-05T08:31:57.538Z,102348.25
2023-02-05T08:34:25.313Z,102342.94
2023-02-05T08:36:53.003Z,102356.19
2023-02-05T08:39:20.993Z,102357.06
2023-02-05T08:41:49.060Z,102355.25
2023-02-05T08:44:16.775Z,102349.94
2023-02-05T08:46:50.054Z,102354.34
2023-02-05T08:49:18.782Z,102345.53
2023-02-05T08:52:06.461Z,102340.22
2023-02-05T08:54:54.144Z,102349.03
2023-02-05T08:57:21.970Z,102337.53
2023-02-05T08:59:49.778Z,102329.56
2023-02-05T09:02:17.536Z,102330.47
2023-02-05T09:04:45.310Z,102321.63
2023-02-05T09:07:13.078Z,102321.63
2023-02-05T09:09:40.914Z,102319.84
2023-02-05T09:12:10.712Z,102317.19
2023-02-05T09:14:40.283Z,102315.44
2023-02-05T09:17:10.268Z,102311.03
2023-02-05T09:19:39.566Z,102311.03
2023-02-05T09:22:08.608Z,102311.06
2023-02-05T09:24:38.237Z,102312.81
2023-02-05T09:27:06.736Z,102315.47
2023-02-05T09:29:34.865Z,102304.88
2023-02-05T09:32:02.608Z,102304.88
2023-02-05T09:34:32.423Z,102311.97
2023-02-05T09:37:00.355Z,102309.28
2023-02-05T09:40:02.301Z,102300.44
2023-02-05T09:42:42.822Z,102304.88
2023-02-05T09:45:31.466Z,102300.47
2023-02-05T09:48:19.415Z,102303.09
2023-02-05T09:50:47.169Z,102296.06
2023-02-05T09:53:21.436Z,102300.47
2023-02-05T09:55:50.174Z,102317.28
2023-02-05T09:58:31.025Z,102318.16
2023-02-05T10:01:19.242Z,102327.88
2023-02-05T10:03:48.756Z,102322.59
2023-02-05T10:06:58.106Z,102322.63
2023-02-05T10:09:35.738Z,102309.34
2023-02-05T10:12:25.218Z,102300.50
2023-02-05T10:15:14.624Z,102301.38
2023-02-05T10:18:13.564Z,102290.78
2023-02-05T10:21:31.263Z,102285.47
2023-02-05T10:24:32.719Z,102282.81
2023-02-05T10:27:23.281Z,102280.16
2023-02-05T10:30:38.038Z,102279.28
2023-02-05T10:33:38.600Z,102277.50
2023-02-05T10:36:09.894Z,102278.38
2023-02-05T10:38:44.820Z,102266.03
2023-02-05T10:41:40.303Z,102263.34
2023-02-05T10:44:38.511Z,102258.91
2023-02-05T10:47:37.992Z,102261.56
2023-02-05T10:50:21.754Z,102258.06
2023-02-05T10:52:51.087Z,102255.41
2023-02-05T10:55:19.744Z,102238.56
2023-02-05T10:57:47.736Z,102236.81
2023-02-05T11:00:20.751Z,102236.81
2023-02-05T11:02:55.718Z,102232.38
2023-02-05T11:05:39.121Z,102229.72
2023-02-05T11:08:34.705Z,102240.31
2023-02-05T11:11:03.532Z,102240.31
2023-02-05T11:13:33.438Z,102228.84
2023-02-05T11:16:06.679Z,102226.19
2023-02-05T11:18:44.142Z,102220.88
2023-02-05T11:21:12.852Z,102235.03
2023-02-05T11:23:53.700Z,102235.03
2023-02-05T11:26:25.380Z,102223.50
2023-02-05T11:28:53.203Z,102225.28
2023-02-05T11:31:32.170Z,102229.75
2023-02-05T11:34:08.927Z,102212.94
2023-02-05T11:36:52.363Z,102210.25
2023-02-05T11:39:40.480Z,102204.06
2023-02-05T11:42:23.787Z,102209.38
2023-02-05T11:44:58.613Z,102207.63
2023-02-05T11:47:36.118Z,102195.22
2023-02-05T11:50:06.424Z,102198.72
2023-02-05T11:52:37.970Z,102189.91
2023-02-05T11:55:08.223Z,102204.94
2023-02-05T11:57:41.890Z,102202.28
2023-02-05T12:00:12.678Z,102201.41
2023-02-05T12:02:44.197Z,102204.94
2023-02-05T12:05:26.428Z,102202.28
2023-02-05T12:08:13.926Z,102207.59
2023-02-05T12:11:05.721Z,102207.59
2023-02-05T12:13:43.614Z,102208.50
2023-02-05T12:16:42.687Z,102203.16
2023-02-05T12:19:49.821Z,102197.00
2023-02-05T12:22:20.315Z,102187.25
2023-02-05T12:25:21.537Z,102183.69
2023-02-05T12:28:22.829Z,102183.69
2023-02-05T12:31:46.210Z,102185.47
2023-02-05T12:34:54.232Z,102187.25
2023-02-05T12:37:59.168Z,102174.84
2023-02-05T12:41:02.662Z,102171.34
2023-02-05T12:43:50.107Z,102175.75
2023-02-05T12:46:48.036Z,102153.63
2023-02-05T12:49:55.668Z,102148.28
2023-02-05T12:52:50.028Z,102149.16
2023-02-05T12:56:12.875Z,102160.69
2023-02-05T12:58:47.761Z,102150.03
2023-02-05T13:01:23.254Z,102151.78
2023-02-05T13:04:39.978Z,102148.25
2023-02-05T13:07:26.256Z,102137.59
2023-02-05T13:10:19.687Z,102147.34
2023-02-05T13:12:53.862Z,102134.09
2023-02-05T13:15:36.718Z,102151.78
2023-02-05T13:18:30.117Z,102149.97
2023-02-05T13:21:25.965Z,102143.78
2023-02-05T13:24:42.599Z,102141.09
2023-02-05T13:27:45.615Z,102142.88
2023-02-05T13:30:52.413Z,102141.13
2023-02-05T13:33:20.185Z,102142.88
2023-02-05T13:36:35.424Z,102141.06
2023-02-05T13:39:34.583Z,102133.09
2023-02-05T13:42:36.331Z,102133.09
2023-02-05T13:45:44.168Z,102125.13
2023-02-05T13:48:54.447Z,102125.09
2023-02-05T13:52:09.825Z,102125.97
2023-02-05T13:55:15.138Z,102127.72
2023-02-05T13:58:13.148Z,102120.63
2023-02-05T14:00:44.539Z,102112.66
2023-02-05T14:03:35.295Z,102125.13
2023-02-05T14:07:08.481Z,102118.00
2023-02-05T14:09:42.950Z,102118.84
2023-02-05T14:12:24.075Z,102107.31
2023-02-05T14:15:15.343Z,102117.03
2023-02-05T14:17:43.039Z,102122.34
2023-02-05T14:20:25.713Z,102110.78
2023-02-05T14:23:00.957Z,102117.88
2023-02-05T14:25:45.875Z,102124.97
2023-02-05T14:28:16.949Z,102120.53
2023-02-05T14:30:57.294Z,102124.97
2023-02-05T14:33:45.530Z,102124.06
2023-02-05T14:36:22.812Z,102132.09
2023-02-05T14:39:06.763Z,102125.88
2023-02-05T14:41:40.455Z,102139.19
2023-02-05T14:44:19.959Z,102140.97
2023-02-05T14:47:22.970Z,102138.34
2023-02-05T14:49:53.148Z,102129.53
2023-02-05T14:53:20.871Z,102146.31
2023-02-05T14:55:50.268Z,102148.09
2023-02-05T14:58:44.947Z,102137.50
2023-02-05T15:01:35.558Z,102156.09
2023-02-05T15:04:32.123Z,102148.13
2023-02-05T15:07:27.031Z,102147.22
2023-02-05T15:10:05.236Z,102141.91
2023-02-05T15:13:18.746Z,102148.97
2023-02-05T15:16:11.492Z,102155.19
2023-02-05T15:18:52.613Z,102147.19
2023-02-05T15:21:55.820Z,102149.84
2023-02-05T15:24:27.641Z,102153.38
2023-02-05T15:26:56.782Z,102149.06
2023-02-05T15:29:44.390Z,102154.31
2023-02-05T15:32:33.915Z,102160.50
2023-02-05T15:35:25.375Z,102146.31
2023-02-05T15:38:18.340Z,102153.41
2023-02-05T15:40:47.173Z,102148.94
2023-02-05T15:43:21.985Z,102159.56
2023-02-05T15:46:05.611Z,102153.38
2023-02-05T15:48:38.575Z,102168.44
2023-02-05T15:51:33.836Z,102147.19
2023-02-05T15:54:05.308Z,102168.47
2023-02-05T15:56:42.274Z,102159.59
2023-02-05T15:59:10.098Z,102157.81
2023-02-05T16:01:46.899Z,102167.56
2023-02-05T16:04:39.290Z,102173.78
2023-02-05T16:07:36.041Z,102172.94
2023-02-05T16:10:22.081Z,102184.44
2023-02-05T16:13:06.464Z,102193.31
2023-02-05T16:15:57.352Z,102184.47
2023-02-05T16:18:53.647Z,102193.34
2023-02-05T16:21:37.584Z,102202.19
2023-02-05T16:24:32.491Z,102203.97
2023-02-05T16:27:45.462Z,102209.28
2023-02-05T16:30:42.642Z,102216.34
2023-02-05T16:33:41.067Z,102224.34
2023-02-05T16:36:25.055Z,102219.91
2023-02-05T16:38:57.198Z,102231.41
2023-02-05T16:41:34.542Z,102238.50
2023-02-05T16:44:08.293Z,102226.97
2023-02-05T16:46:37.019Z,102228.75
2023-02-05T16:49:23.257Z,102237.59
2023-02-05T16:51:51.028Z,102249.13
2023-02-05T16:54:18.739Z,102244.69
2023-02-05T16:56:58.271Z,102251.78
2023-02-05T16:59:35.854Z,102254.47
2023-02-05T17:02:04.190Z,102258.91
2023-02-05T17:04:38.829Z,102270.41
2023-02-05T17:07:19.748Z,102260.66
2023-02-05T17:09:49.276Z,102269.56
2023-02-05T17:12:32.924Z,102267.81
2023-02-05T17:15:24.482Z,102284.63
2023-02-05T17:18:27.788Z,102288.16
2023-02-05T17:21:29.091Z,102287.28
2023-02-05T17:23:59.915Z,102291.72
2023-02-05T17:26:33.376Z,102297.03
2023-02-05T17:29:06.044Z,102284.66
2023-02-05T17:31:38.876Z,102302.38
2023-02-05T17:34:07.672Z,102305.00
2023-02-05T17:36:35.611Z,102295.28
2023-02-05T17:39:03.548Z,102295.28
2023-02-05T17:41:56.148Z,102292.63
2023-02-05T17:44:25.661Z,102292.63
2023-02-05T17:46:54.305Z,102304.13
2023-02-05T17:49:22.088Z,102297.97
2023-02-05T17:51:50.298Z,102292.63
2023-02-05T17:54:25.600Z,102299.72
2023-02-05T17:57:02.938Z,102315.66
2023-02-05T17:59:30.952Z,102306.81
2023-02-05T18:01:58.875Z,102313.91
2023-02-05T18:04:26.782Z,102306.81
2023-02-05T18:06:54.588Z,102319.19
2023-02-05T18:09:22.545Z,102322.75
2023-02-05T18:11:50.551Z,102323.66
2023-02-05T18:14:18.439Z,102328.06
2023-02-05T18:16:47.189Z,102324.53
2023-02-05T18:19:15.136Z,102331.63
2023-02-05T18:21:43.035Z,102321.84
2023-02-05T18:24:11.321Z,102320.09
2023-02-05T18:26:39.096Z,102314.72
2023-02-05T18:29:07.154Z,102321.84
2023-02-05T18:31:35.291Z,102335.13
2023-02-05T18:34:05.091Z,102344.84
2023-02-05T18:36:33.129Z,102338.66
2023-02-05T18:39:01.352Z,102341.31
2023-02-05T18:41:29.139Z,102354.59
2023-02-05T18:43:57.791Z,102366.13
2023-02-05T18:46:26.094Z,102363.47
2023-02-05T18:48:55.175Z,102360.78
2023-02-05T18:51:24.035Z,102367.88
2023-02-05T18:53:52.620Z,102376.72
2023-02-05T18:56:26.594Z,102373.19
2023-02-05T18:59:03.020Z,102377.59
2023-02-05T19:01:34.065Z,102382.91
2023-02-05T19:04:09.105Z,102373.19
2023-02-05T19:06:45.144Z,102382.03
2023-02-05T19:09:13.000Z,102389.13
2023-02-05T19:11:41.632Z,102383.81
2023-02-05T19:14:13.632Z,102404.16
2023-02-05T19:16:42.754Z,102404.19
2023-02-05T19:19:17.366Z,102399.75
2023-02-05T19:21:46.631Z,102407.69
2023-02-05T19:24:14.814Z,102414.81
2023-02-05T19:26:44.085Z,102415.66
2023-02-05T19:29:18.596Z,102419.22
2023-02-05T19:31:47.002Z,102400.59
2023-02-05T19:34:16.103Z,102413.00
2023-02-05T19:36:44.019Z,102405.06
2023-02-05T19:39:19.227Z,102415.66
2023-02-05T19:41:48.366Z,102419.22
2023-02-05T19:44:17.474Z,102415.66
2023-02-05T19:46:46.641Z,102409.47
2023-02-05T19:49:19.523Z,102415.66
2023-02-05T19:51:51.045Z,102428.94
2023-02-05T19:54:21.569Z,102433.38
2023-02-05T19:56:50.167Z,102432.44
2023-02-05T19:59:18.232Z,102443.97
2023-02-05T20:01:47.312Z,102432.44
2023-02-05T20:04:24.735Z,102428.03
2023-02-05T20:06:59.103Z,102422.72
2023-02-05T20:09:28.320Z,102428.94
2023-02-05T20:11:56.197Z,102430.69
2023-02-05T20:14:24.346Z,102434.25
2023-02-05T20:16:53.285Z,102421.81
2023-02-05T20:19:21.652Z,102435.09
2023-02-05T20:21:49.667Z,102443.97
2023-02-05T20:24:17.572Z,102438.66
2023-02-05T20:26:48.466Z,102436.88
2023-02-05T20:29:35.505Z,102440.41
2023-02-05T20:32:04.429Z,102443.97
2023-02-05T20:34:36.022Z,102443.97
2023-02-05T20:37:09.013Z,102439.53
2023-02-05T20:39:43.897Z,102446.63
2023-02-05T20:42:15.573Z,102447.50
2023-02-05T20:44:44.225Z,102451.03
2023-02-05T20:47:14.446Z,102456.38
2023-02-05T20:49:42.866Z,102459.00
2023-02-05T20:52:30.525Z,102461.69
2023-02-05T20:54:58.655Z,102472.34
2023-02-05T20:57:46.374Z,102472.31
2023-02-05T21:00:14.839Z,102475.84
2023-02-05T21:02:43.709Z,102486.47
2023-02-05T21:05:12.913Z,102472.28
2023-02-05T21:07:42.661Z,102466.09
2023-02-05T21:10:11.223Z,102470.50
2023-02-05T21:12:38.977Z,102494.41
2023-02-05T21:15:07.466Z,102505.03
2023-02-05T21:17:35.186Z,102509.47
2023-02-05T21:20:04.920Z,102508.56
2023-02-05T21:22:32.857Z,102516.56
2023-02-05T21:25:01.415Z,102532.47
2023-02-05T21:27:29.413Z,102540.44
2023-02-05T21:29:57.223Z,102526.25
2023-02-05T21:32:25.469Z,102540.41
2023-02-05T21:34:53.377Z,102545.75
2023-02-05T21:37:21.576Z,102537.72
2023-02-05T21:39:50.908Z,102548.38
2023-02-05T21:42:20.539Z,102544.81
2023-02-05T21:44:50.958Z,102549.25
2023-02-05T21:47:18.695Z,102554.56
2023-02-05T21:49:47.665Z,102543.03
2023-02-05T21:52:15.816Z,102557.19
2023-02-05T21:54:43.519Z,102551.88
2023-02-05T21:57:12.500Z,102552.75
2023-02-05T21:59:40.517Z,102554.50
2023-02-05T22:02:12.109Z,102567.78
2023-02-05T22:04:40.144Z,102559.78
2023-02-05T22:07:07.858Z,102562.47
2023-02-05T22:09:37.701Z,102565.97
2023-02-05T22:12:06.293Z,102577.47
2023-02-05T22:14:35.574Z,102574.81
2023-02-05T22:17:03.399Z,102581.00
2023-02-05T22:19:31.121Z,102588.97
2023-02-05T22:21:59.538Z,102588.94
2023-02-05T22:24:27.257Z,102593.41
2023-02-05T22:26:55.082Z,102590.75
2023-02-05T22:29:23.128Z,102588.94
2023-02-05T22:31:54.020Z,102594.25
2023-02-05T22:34:22.522Z,102596.88
2023-02-05T22:36:50.216Z,102611.03
2023-02-05T22:39:17.995Z,102598.59
2023-02-05T22:41:46.757Z,102611.88
2023-02-05T22:44:14.465Z,102614.53
2023-02-05T22:46:44.366Z,102610.06
2023-02-05T22:49:15.400Z,102607.41
2023-02-05T22:51:44.183Z,102616.22
2023-02-05T22:54:14.794Z,102616.22
2023-02-05T22:56:42.669Z,102623.25
2023-02-05T22:59:10.427Z,102631.19
2023-02-05T23:01:39.011Z,102627.59
2023-02-05T23:04:09.225Z,102633.81
2023-02-05T23:06:41.315Z,102640.88
2023-02-05T23:09:16.260Z,102641.78
2023-02-05T23:11:45.232Z,102649.72
2023-02-05T23:14:16.211Z,102640.94
2023-02-05T23:16:46.464Z,102647.13
2023-02-05T23:19:18.974Z,102638.25
2023-02-05T23:21:47.613Z,102648.91
2023-02-05T23:24:16.179Z,102660.41
2023-02-05T23:26:47.342Z,102650.66
2023-02-05T23:29:16.612Z,102663.97
2023-02-05T23:31:44.980Z,102662.22
2023-02-05T23:34:13.378Z,102655.03
2023-02-05T23:36:41.565Z,102663.97
2023-02-05T23:39:09.583Z,102668.41
2023-02-05T23:41:37.583Z,102663.09
2023-02-05T23:44:18.133Z,102660.44
2023-02-05T23:46:48.686Z,102663.06
2023-02-05T23:49:21.712Z,102671.84
2023-02-05T23:51:54.841Z,102677.16
2023-02-05T23:54:24.098Z,102670.97
2023-02-05T23:56:52.650Z,102667.38
2023-02-05T23:59:20.561Z,102679.81
